sensor_id;sensor_type;location;lat;lon;timestamp;temperature;humidity
39779;DHT22;25454;49.878;8.618;2023-03-20T00:04:53;11.00;99.90
39779;DHT22;25454;49.878;8.618;2023-03-20T00:09:53;11.00;99.90
39779;DHT22;25454;49.878;8.618;2023-03-20T00:14:56;11.10;99.90
39779;DHT22;25454;49.878;8.618;2023-03-20T00:20:01;11.20;99.90
39779;DHT22;25454;49.878;8.618;2023-03-20T00:25:02;11.20;99.90
39779;DHT22;25454;49.878;8.618;2023-03-20T00:30:18;11.20;99.90
39779;DHT22;25454;49.878;8.618;2023-03-20T00:35:28;11.10;99.90
39779;DHT22;25454;49.878;8.618;2023-03-20T00:40:30;11.10;99.90
39779;DHT22;25454;49.878;8.618;2023-03-20T00:45:33;11.10;99.90
39779;DHT22;25454;49.878;8.618;2023-03-20T00:50:34;11.10;99.90
39779;DHT22;25454;49.878;8.618;2023-03-20T00:55:35;11.10;99.90
39779;DHT22;25454;49.878;8.618;2023-03-20T01:00:43;11.00;99.90
39779;DHT22;25454;49.878;8.618;2023-03-20T01:05:47;11.10;99.90
39779;DHT22;25454;49.878;8.618;2023-03-20T01:10:50;11.00;99.90
39779;DHT22;25454;49.878;8.618;2023-03-20T01:15:52;11.00;99.90
39779;DHT22;25454;49.878;8.618;2023-03-20T01:20:53;11.00;99.90
39779;DHT22;25454;49.878;8.618;2023-03-20T01:25:54;11.00;99.90
39779;DHT22;25454;49.878;8.618;2023-03-20T01:30:55;10.90;99.90
39779;DHT22;25454;49.878;8.618;2023-03-20T01:35:55;10.90;99.90
39779;DHT22;25454;49.878;8.618;2023-03-20T01:41:14;10.80;99.90
39779;DHT22;25454;49.878;8.618;2023-03-20T01:46:25;10.80;99.90
39779;DHT22;25454;49.878;8.618;2023-03-20T01:51:29;10.80;99.90
39779;DHT22;25454;49.878;8.618;2023-03-20T01:56:36;10.80;99.90
39779;DHT22;25454;49.878;8.618;2023-03-20T02:01:38;10.70;99.90
39779;DHT22;25454;49.878;8.618;2023-03-20T02:06:44;10.70;99.90
39779;DHT22;25454;49.878;8.618;2023-03-20T02:11:45;10.70;99.90
39779;DHT22;25454;49.878;8.618;2023-03-20T02:16:47;10.70;99.90
39779;DHT22;25454;49.878;8.618;2023-03-20T02:38:50;10.60;99.90
39779;DHT22;25454;49.878;8.618;2023-03-20T02:44:16;10.60;99.90
39779;DHT22;25454;49.878;8.618;2023-03-20T02:49:48;10.60;99.90
39779;DHT22;25454;49.878;8.618;2023-03-20T02:55:08;10.60;99.90
39779;DHT22;25454;49.878;8.618;2023-03-20T03:00:16;10.60;99.90
39779;DHT22;25454;49.878;8.618;2023-03-20T03:05:24;10.60;99.90
39779;DHT22;25454;49.878;8.618;2023-03-20T03:10:30;10.60;99.90
39779;DHT22;25454;49.878;8.618;2023-03-20T03:15:40;10.70;99.90
39779;DHT22;25454;49.878;8.618;2023-03-20T03:20:43;10.70;99.90
39779;DHT22;25454;49.878;8.618;2023-03-20T03:25:45;10.70;99.90
39779;DHT22;25454;49.878;8.618;2023-03-20T03:30:46;10.70;99.90
39779;DHT22;25454;49.878;8.618;2023-03-20T03:35:47;10.70;99.90
39779;DHT22;25454;49.878;8.618;2023-03-20T03:46:48;10.70;99.90
39779;DHT22;25454;49.878;8.618;2023-03-20T03:51:53;10.70;99.90
39779;DHT22;25454;49.878;8.618;2023-03-20T03:56:56;10.70;99.90
39779;DHT22;25454;49.878;8.618;2023-03-20T04:01:58;10.70;99.90
39779;DHT22;25454;49.878;8.618;2023-03-20T04:06:59;10.70;99.90
39779;DHT22;25454;49.878;8.618;2023-03-20T04:12:00;10.70;99.90
39779;DHT22;25454;49.878;8.618;2023-03-20T04:17:00;10.70;99.90
39779;DHT22;25454;49.878;8.618;2023-03-20T04:22:01;10.80;99.90
39779;DHT22;25454;49.878;8.618;2023-03-20T04:27:01;10.80;99.90
39779;DHT22;25454;49.878;8.618;2023-03-20T04:32:02;10.80;99.90
39779;DHT22;25454;49.878;8.618;2023-03-20T04:37:03;10.80;99.90
39779;DHT22;25454;49.878;8.618;2023-03-20T04:42:05;10.80;99.90
39779;DHT22;25454;49.878;8.618;2023-03-20T04:47:05;10.80;99.90
39779;DHT22;25454;49.878;8.618;2023-03-20T04:52:06;10.80;99.90
39779;DHT22;25454;49.878;8.618;2023-03-20T04:57:06;10.90;99.90
39779;DHT22;25454;49.878;8.618;2023-03-20T05:02:07;10.90;99.90
39779;DHT22;25454;49.878;8.618;2023-03-20T05:07:08;10.90;99.90
39779;DHT22;25454;49.878;8.618;2023-03-20T05:12:09;10.80;99.90
39779;DHT22;25454;49.878;8.618;2023-03-20T05:17:10;10.80;99.90
39779;DHT22;25454;49.878;8.618;2023-03-20T05:22:10;10.80;99.90
39779;DHT22;25454;49.878;8.618;2023-03-20T05:27:11;10.80;99.90
39779;DHT22;25454;49.878;8.618;2023-03-20T05:32:12;10.80;99.90
39779;DHT22;25454;49.878;8.618;2023-03-20T05:37:12;10.90;99.90
39779;DHT22;25454;49.878;8.618;2023-03-20T05:42:13;10.90;99.90
39779;DHT22;25454;49.878;8.618;2023-03-20T05:47:14;10.90;99.90
39779;DHT22;25454;49.878;8.618;2023-03-20T05:52:14;10.90;99.90
39779;DHT22;25454;49.878;8.618;2023-03-20T05:57:15;10.90;99.90
39779;DHT22;25454;49.878;8.618;2023-03-20T06:02:16;10.90;99.90
39779;DHT22;25454;49.878;8.618;2023-03-20T06:07:17;10.90;99.90
39779;DHT22;25454;49.878;8.618;2023-03-20T06:12:17;11.00;99.90
39779;DHT22;25454;49.878;8.618;2023-03-20T06:17:18;11.00;99.90
39779;DHT22;25454;49.878;8.618;2023-03-20T06:22:19;11.00;99.90
39779;DHT22;25454;49.878;8.618;2023-03-20T06:27:19;11.00;99.90
39779;DHT22;25454;49.878;8.618;2023-03-20T06:32:20;11.10;99.90
39779;DHT22;25454;49.878;8.618;2023-03-20T06:37:21;11.00;99.90
39779;DHT22;25454;49.878;8.618;2023-03-20T06:42:22;11.10;99.90
39779;DHT22;25454;49.878;8.618;2023-03-20T06:47:25;11.10;99.90
39779;DHT22;25454;49.878;8.618;2023-03-20T06:52:26;11.00;99.90
39779;DHT22;25454;49.878;8.618;2023-03-20T06:57:29;11.10;99.90
39779;DHT22;25454;49.878;8.618;2023-03-20T07:02:30;11.00;99.90
39779;DHT22;25454;49.878;8.618;2023-03-20T07:07:31;11.00;99.90
39779;DHT22;25454;49.878;8.618;2023-03-20T07:12:35;11.10;99.90
39779;DHT22;25454;49.878;8.618;2023-03-20T07:17:35;11.10;99.90
39779;DHT22;25454;49.878;8.618;2023-03-20T07:22:36;11.20;99.90
39779;DHT22;25454;49.878;8.618;2023-03-20T07:27:40;11.40;99.90
39779;DHT22;25454;49.878;8.618;2023-03-20T07:32:40;11.60;99.90
39779;DHT22;25454;49.878;8.618;2023-03-20T07:37:41;11.60;99.90
39779;DHT22;25454;49.878;8.618;2023-03-20T07:42:43;11.60;99.90
39779;DHT22;25454;49.878;8.618;2023-03-20T07:47:44;11.50;99.90
39779;DHT22;25454;49.878;8.618;2023-03-20T07:52:52;11.40;99.90
39779;DHT22;25454;49.878;8.618;2023-03-20T07:57:52;11.40;99.90
39779;DHT22;25454;49.878;8.618;2023-03-20T08:02:53;11.40;99.90
39779;DHT22;25454;49.878;8.618;2023-03-20T08:07:56;11.30;99.90
39779;DHT22;25454;49.878;8.618;2023-03-20T08:12:56;11.40;99.90
39779;DHT22;25454;49.878;8.618;2023-03-20T08:17:57;11.40;99.90
39779;DHT22;25454;49.878;8.618;2023-03-20T08:22:58;11.40;99.90
39779;DHT22;25454;49.878;8.618;2023-03-20T08:27:59;11.50;99.90
39779;DHT22;25454;49.878;8.618;2023-03-20T08:33:07;11.90;99.90
39779;DHT22;25454;49.878;8.618;2023-03-20T08:38:11;12.10;99.90
39779;DHT22;25454;49.878;8.618;2023-03-20T08:43:12;12.20;99.90
39779;DHT22;25454;49.878;8.618;2023-03-20T08:48:13;12.10;99.90
39779;DHT22;25454;49.878;8.618;2023-03-20T08:53:13;12.00;99.90
39779;DHT22;25454;49.878;8.618;2023-03-20T08:58:14;11.90;99.90
39779;DHT22;25454;49.878;8.618;2023-03-20T09:03:17;11.70;99.90
39779;DHT22;25454;49.878;8.618;2023-03-20T09:08:18;11.60;99.90
39779;DHT22;25454;49.878;8.618;2023-03-20T09:13:19;11.60;99.90
39779;DHT22;25454;49.878;8.618;2023-03-20T09:18:22;11.50;99.90
39779;DHT22;25454;49.878;8.618;2023-03-20T09:23:23;11.60;99.90
39779;DHT22;25454;49.878;8.618;2023-03-20T09:28:23;11.70;99.90
39779;DHT22;25454;49.878;8.618;2023-03-20T09:33:25;11.80;99.90
39779;DHT22;25454;49.878;8.618;2023-03-20T09:38:26;11.90;99.90
39779;DHT22;25454;49.878;8.618;2023-03-20T09:54:25;12.20;99.90
39779;DHT22;25454;49.878;8.618;2023-03-20T09:59:26;12.90;99.90
39779;DHT22;25454;49.878;8.618;2023-03-20T10:04:28;14.50;99.90
39779;DHT22;25454;49.878;8.618;2023-03-20T10:09:29;16.40;99.90
39779;DHT22;25454;49.878;8.618;2023-03-20T10:20:25;19.40;99.90
39779;DHT22;25454;49.878;8.618;2023-03-20T10:25:36;20.30;99.90
39779;DHT22;25454;49.878;8.618;2023-03-20T10:36:08;20.00;99.90
39779;DHT22;25454;49.878;8.618;2023-03-20T10:41:15;19.80;99.90
39779;DHT22;25454;49.878;8.618;2023-03-20T10:51:47;18.30;99.90
39779;DHT22;25454;49.878;8.618;2023-03-20T10:56:50;17.60;99.90
39779;DHT22;25454;49.878;8.618;2023-03-20T11:01:51;17.10;99.90
39779;DHT22;25454;49.878;8.618;2023-03-20T11:07:25;17.10;99.90
39779;DHT22;25454;49.878;8.618;2023-03-20T11:12:32;16.60;99.90
39779;DHT22;25454;49.878;8.618;2023-03-20T11:17:33;16.40;99.90
39779;DHT22;25454;49.878;8.618;2023-03-20T11:22:33;18.80;99.90
39779;DHT22;25454;49.878;8.618;2023-03-20T11:27:35;20.50;99.90
39779;DHT22;25454;49.878;8.618;2023-03-20T11:32:41;20.70;99.90
39779;DHT22;25454;49.878;8.618;2023-03-20T11:37:47;20.00;99.90
39779;DHT22;25454;49.878;8.618;2023-03-20T11:43:02;19.10;99.90
39779;DHT22;25454;49.878;8.618;2023-03-20T11:48:03;18.80;99.90
39779;DHT22;25454;49.878;8.618;2023-03-20T11:53:27;19.20;99.90
39779;DHT22;25454;49.878;8.618;2023-03-20T11:58:29;19.40;99.90
39779;DHT22;25454;49.878;8.618;2023-03-20T12:03:43;19.40;99.90
39779;DHT22;25454;49.878;8.618;2023-03-20T12:08:51;19.50;99.90
39779;DHT22;25454;49.878;8.618;2023-03-20T12:13:56;19.50;99.90
39779;DHT22;25454;49.878;8.618;2023-03-20T12:19:04;19.70;99.40
39779;DHT22;25454;49.878;8.618;2023-03-20T12:24:18;19.20;97.30
39779;DHT22;25454;49.878;8.618;2023-03-20T12:30:09;18.90;98.60
39779;DHT22;25454;49.878;8.618;2023-03-20T12:34:56;18.80;98.10
39779;DHT22;25454;49.878;8.618;2023-03-20T12:40:00;18.50;98.60
39779;DHT22;25454;49.878;8.618;2023-03-20T12:45:12;18.40;97.10
39779;DHT22;25454;49.878;8.618;2023-03-20T13:06:52;17.80;94.60
39779;DHT22;25454;49.878;8.618;2023-03-20T13:38:37;16.90;95.40
39779;DHT22;25454;49.878;8.618;2023-03-20T13:43:48;16.90;95.10
39779;DHT22;25454;49.878;8.618;2023-03-20T13:48:57;16.60;94.80
39779;DHT22;25454;49.878;8.618;2023-03-20T13:59:44;16.40;95.00
39779;DHT22;25454;49.878;8.618;2023-03-20T14:04:55;16.30;93.90
39779;DHT22;25454;49.878;8.618;2023-03-20T14:09:57;16.30;94.00
39779;DHT22;25454;49.878;8.618;2023-03-20T14:15:18;16.30;92.50
39779;DHT22;25454;49.878;8.618;2023-03-20T14:20:32;16.40;91.00
39779;DHT22;25454;49.878;8.618;2023-03-20T14:25:40;16.60;91.00
39779;DHT22;25454;49.878;8.618;2023-03-20T14:30:44;16.70;91.10
39779;DHT22;25454;49.878;8.618;2023-03-20T14:35:49;16.80;90.60
39779;DHT22;25454;49.878;8.618;2023-03-20T14:41:11;16.60;90.70
39779;DHT22;25454;49.878;8.618;2023-03-20T14:46:31;16.40;90.10
39779;DHT22;25454;49.878;8.618;2023-03-20T14:51:40;16.20;90.60
39779;DHT22;25454;49.878;8.618;2023-03-20T14:56:40;16.20;90.20
39779;DHT22;25454;49.878;8.618;2023-03-20T15:01:46;16.00;89.20
39779;DHT22;25454;49.878;8.618;2023-03-20T15:07:05;15.90;90.00
39779;DHT22;25454;49.878;8.618;2023-03-20T15:12:13;15.80;89.50
39779;DHT22;25454;49.878;8.618;2023-03-20T15:17:20;15.60;90.00
39779;DHT22;25454;49.878;8.618;2023-03-20T15:22:20;15.60;90.10
39779;DHT22;25454;49.878;8.618;2023-03-20T15:27:25;15.60;87.70
39779;DHT22;25454;49.878;8.618;2023-03-20T15:32:28;15.70;86.10
39779;DHT22;25454;49.878;8.618;2023-03-20T15:37:29;15.80;81.50
39779;DHT22;25454;49.878;8.618;2023-03-20T15:42:30;15.70;79.10
39779;DHT22;25454;49.878;8.618;2023-03-20T15:47:31;15.40;80.20
39779;DHT22;25454;49.878;8.618;2023-03-20T15:52:39;15.10;82.40
39779;DHT22;25454;49.878;8.618;2023-03-20T15:57:43;14.80;84.70
39779;DHT22;25454;49.878;8.618;2023-03-20T16:02:47;14.60;86.50
39779;DHT22;25454;49.878;8.618;2023-03-20T16:07:48;14.50;87.20
39779;DHT22;25454;49.878;8.618;2023-03-20T16:12:50;14.50;88.00
39779;DHT22;25454;49.878;8.618;2023-03-20T16:17:55;14.50;88.00
39779;DHT22;25454;49.878;8.618;2023-03-20T16:23:01;14.40;84.50
39779;DHT22;25454;49.878;8.618;2023-03-20T16:28:03;14.30;85.50
39779;DHT22;25454;49.878;8.618;2023-03-20T16:33:14;14.10;85.40
39779;DHT22;25454;49.878;8.618;2023-03-20T16:43:26;13.70;85.20
39779;DHT22;25454;49.878;8.618;2023-03-20T16:48:34;13.60;85.80
39779;DHT22;25454;49.878;8.618;2023-03-20T16:53:41;13.40;87.90
39779;DHT22;25454;49.878;8.618;2023-03-20T16:58:44;13.30;89.80
39779;DHT22;25454;49.878;8.618;2023-03-20T17:03:57;13.20;89.70
39779;DHT22;25454;49.878;8.618;2023-03-20T17:09:24;13.10;90.70
39779;DHT22;25454;49.878;8.618;2023-03-20T17:14:25;13.00;91.50
39779;DHT22;25454;49.878;8.618;2023-03-20T17:19:26;12.90;92.40
39779;DHT22;25454;49.878;8.618;2023-03-20T17:24:27;12.90;93.00
39779;DHT22;25454;49.878;8.618;2023-03-20T17:29:27;12.70;92.90
39779;DHT22;25454;49.878;8.618;2023-03-20T17:34:28;12.60;93.40
39779;DHT22;25454;49.878;8.618;2023-03-20T17:39:28;12.60;94.10
39779;DHT22;25454;49.878;8.618;2023-03-20T17:44:29;12.50;94.20
39779;DHT22;25454;49.878;8.618;2023-03-20T17:49:30;12.40;94.70
39779;DHT22;25454;49.878;8.618;2023-03-20T17:54:34;12.30;95.30
39779;DHT22;25454;49.878;8.618;2023-03-20T17:59:34;12.30;95.70
39779;DHT22;25454;49.878;8.618;2023-03-20T18:04:38;12.30;95.70
39779;DHT22;25454;49.878;8.618;2023-03-20T18:09:39;12.20;96.10
39779;DHT22;25454;49.878;8.618;2023-03-20T18:14:40;12.10;96.30
39779;DHT22;25454;49.878;8.618;2023-03-20T18:19:42;12.00;96.70
39779;DHT22;25454;49.878;8.618;2023-03-20T18:24:42;12.00;97.00
39779;DHT22;25454;49.878;8.618;2023-03-20T18:29:43;12.00;97.20
39779;DHT22;25454;49.878;8.618;2023-03-20T18:34:43;12.00;97.70
39779;DHT22;25454;49.878;8.618;2023-03-20T18:39:44;12.00;97.90
39779;DHT22;25454;49.878;8.618;2023-03-20T18:44:45;12.00;97.70
39779;DHT22;25454;49.878;8.618;2023-03-20T18:49:45;12.00;97.80
39779;DHT22;25454;49.878;8.618;2023-03-20T18:54:46;12.00;98.20
39779;DHT22;25454;49.878;8.618;2023-03-20T18:59:49;12.00;99.60
39779;DHT22;25454;49.878;8.618;2023-03-20T19:04:50;11.90;99.90
39779;DHT22;25454;49.878;8.618;2023-03-20T19:09:50;11.90;99.70
39779;DHT22;25454;49.878;8.618;2023-03-20T19:14:51;11.90;99.40
39779;DHT22;25454;49.878;8.618;2023-03-20T19:19:51;11.90;99.30
39779;DHT22;25454;49.878;8.618;2023-03-20T19:24:52;11.80;99.80
39779;DHT22;25454;49.878;8.618;2023-03-20T19:29:52;11.80;99.90
39779;DHT22;25454;49.878;8.618;2023-03-20T19:34:56;11.80;99.90
39779;DHT22;25454;49.878;8.618;2023-03-20T19:39:56;11.70;99.90
39779;DHT22;25454;49.878;8.618;2023-03-20T19:44:57;11.70;99.90
39779;DHT22;25454;49.878;8.618;2023-03-20T19:49:58;11.70;99.90
39779;DHT22;25454;49.878;8.618;2023-03-20T19:54:58;11.60;99.90
39779;DHT22;25454;49.878;8.618;2023-03-20T20:00:05;11.60;99.90
39779;DHT22;25454;49.878;8.618;2023-03-20T20:05:23;11.60;99.90
39779;DHT22;25454;49.878;8.618;2023-03-20T20:10:32;11.50;99.90
39779;DHT22;25454;49.878;8.618;2023-03-20T20:15:33;11.50;99.90
39779;DHT22;25454;49.878;8.618;2023-03-20T20:20:35;11.50;99.90
39779;DHT22;25454;49.878;8.618;2023-03-20T20:25:36;11.50;99.90
39779;DHT22;25454;49.878;8.618;2023-03-20T20:30:37;11.50;99.90
39779;DHT22;25454;49.878;8.618;2023-03-20T20:35:37;11.50;99.90
39779;DHT22;25454;49.878;8.618;2023-03-20T20:40:39;11.50;99.90
39779;DHT22;25454;49.878;8.618;2023-03-20T20:45:40;11.50;99.90
39779;DHT22;25454;49.878;8.618;2023-03-20T20:50:40;11.40;99.90
39779;DHT22;25454;49.878;8.618;2023-03-20T20:55:43;11.30;99.90
39779;DHT22;25454;49.878;8.618;2023-03-20T21:00:44;11.30;99.90
39779;DHT22;25454;49.878;8.618;2023-03-20T21:05:45;11.20;99.90
39779;DHT22;25454;49.878;8.618;2023-03-20T21:10:46;11.20;99.90
39779;DHT22;25454;49.878;8.618;2023-03-20T21:15:56;11.20;99.90
39779;DHT22;25454;49.878;8.618;2023-03-20T21:21:07;11.20;99.90
39779;DHT22;25454;49.878;8.618;2023-03-20T21:26:08;11.10;99.90
39779;DHT22;25454;49.878;8.618;2023-03-20T21:31:08;11.10;99.90
39779;DHT22;25454;49.878;8.618;2023-03-20T21:36:10;11.10;99.90
39779;DHT22;25454;49.878;8.618;2023-03-20T21:41:11;11.10;99.90
39779;DHT22;25454;49.878;8.618;2023-03-20T21:46:13;11.00;99.90
39779;DHT22;25454;49.878;8.618;2023-03-20T21:51:14;11.00;99.90
39779;DHT22;25454;49.878;8.618;2023-03-20T21:56:14;11.00;99.90
39779;DHT22;25454;49.878;8.618;2023-03-20T22:01:16;11.00;99.90
39779;DHT22;25454;49.878;8.618;2023-03-20T22:06:17;11.10;99.90
39779;DHT22;25454;49.878;8.618;2023-03-20T22:11:17;11.00;99.90
39779;DHT22;25454;49.878;8.618;2023-03-20T22:16:18;11.00;99.90
39779;DHT22;25454;49.878;8.618;2023-03-20T22:21:22;11.00;99.90
39779;DHT22;25454;49.878;8.618;2023-03-20T22:26:22;11.00;99.90
39779;DHT22;25454;49.878;8.618;2023-03-20T22:31:23;10.90;99.90
39779;DHT22;25454;49.878;8.618;2023-03-20T22:36:23;10.90;99.90
39779;DHT22;25454;49.878;8.618;2023-03-20T22:41:24;10.90;99.90
39779;DHT22;25454;49.878;8.618;2023-03-20T22:46:25;10.80;99.90
39779;DHT22;25454;49.878;8.618;2023-03-20T22:51:26;10.80;99.90
39779;DHT22;25454;49.878;8.618;2023-03-20T22:56:26;10.80;99.90
39779;DHT22;25454;49.878;8.618;2023-03-20T23:01:27;10.80;99.90
39779;DHT22;25454;49.878;8.618;2023-03-20T23:06:28;10.70;99.90
39779;DHT22;25454;49.878;8.618;2023-03-20T23:11:30;10.70;99.90
39779;DHT22;25454;49.878;8.618;2023-03-20T23:16:30;10.70;99.90
39779;DHT22;25454;49.878;8.618;2023-03-20T23:21:31;10.60;99.90
39779;DHT22;25454;49.878;8.618;2023-03-20T23:26:34;10.70;99.90
39779;DHT22;25454;49.878;8.618;2023-03-20T23:31:34;10.70;99.90
39779;DHT22;25454;49.878;8.618;2023-03-20T23:36:35;10.60;99.90
39779;DHT22;25454;49.878;8.618;2023-03-20T23:41:36;10.60;99.90
39779;DHT22;25454;49.878;8.618;2023-03-20T23:46:37;10.60;99.90
39779;DHT22;25454;49.878;8.618;2023-03-20T23:51:37;10.60;99.90
39779;DHT22;25454;49.878;8.618;2023-03-20T23:56:38;10.60;99.90
